sensor_id;sensor_type;location;lat;lon;timestamp;P1;durP1;ratioP1;P2;durP2;ratioP2
80340;SDS011;69656;44.498;0.166;2023-11-21T00:04:15;14.03;;;1.40;;
80340;SDS011;69656;44.498;0.166;2023-11-21T00:09:48;10.33;;;1.40;;
80340;SDS011;69656;44.498;0.166;2023-11-21T00:15:22;19.97;;;2.00;;
80340;SDS011;69656;44.498;0.166;2023-11-21T00:20:55;14.23;;;1.83;;
80340;SDS011;69656;44.498;0.166;2023-11-21T00:26:26;20.20;;;1.53;;
80340;SDS011;69656;44.498;0.166;2023-11-21T00:31:58;4.17;;;0.97;;
80340;SDS011;69656;44.498;0.166;2023-11-21T00:37:31;20.33;;;1.80;;
80340;SDS011;69656;44.498;0.166;2023-11-21T00:43:03;11.50;;;1.63;;
80340;SDS011;69656;44.498;0.166;2023-11-21T00:48:36;11.40;;;1.30;;
80340;SDS011;69656;44.498;0.166;2023-11-21T00:54:09;10.77;;;1.97;;
80340;SDS011;69656;44.498;0.166;2023-11-21T00:59:42;9.33;;;0.87;;
80340;SDS011;69656;44.498;0.166;2023-11-21T01:05:16;13.47;;;1.17;;
80340;SDS011;69656;44.498;0.166;2023-11-21T01:10:48;8.33;;;1.43;;
80340;SDS011;69656;44.498;0.166;2023-11-21T01:16:21;8.50;;;1.10;;
80340;SDS011;69656;44.498;0.166;2023-11-21T01:21:54;9.73;;;1.90;;
80340;SDS011;69656;44.498;0.166;2023-11-21T01:27:26;11.47;;;1.40;;
80340;SDS011;69656;44.498;0.166;2023-11-21T01:32:58;11.53;;;2.77;;
80340;SDS011;69656;44.498;0.166;2023-11-21T01:38:30;9.93;;;1.43;;
80340;SDS011;69656;44.498;0.166;2023-11-21T01:44:04;14.23;;;2.60;;
80340;SDS011;69656;44.498;0.166;2023-11-21T01:49:37;10.83;;;1.50;;
80340;SDS011;69656;44.498;0.166;2023-11-21T01:55:10;10.30;;;1.70;;
80340;SDS011;69656;44.498;0.166;2023-11-21T02:00:43;13.93;;;1.83;;
80340;SDS011;69656;44.498;0.166;2023-11-21T02:06:16;10.13;;;1.67;;
80340;SDS011;69656;44.498;0.166;2023-11-21T02:11:50;8.37;;;1.80;;
80340;SDS011;69656;44.498;0.166;2023-11-21T02:17:22;23.97;;;2.40;;
80340;SDS011;69656;44.498;0.166;2023-11-21T02:22:54;11.83;;;1.33;;
80340;SDS011;69656;44.498;0.166;2023-11-21T02:28:26;12.27;;;1.40;;
80340;SDS011;69656;44.498;0.166;2023-11-21T02:33:59;10.40;;;1.30;;
80340;SDS011;69656;44.498;0.166;2023-11-21T02:39:32;6.70;;;1.23;;
80340;SDS011;69656;44.498;0.166;2023-11-21T02:45:05;14.17;;;1.87;;
80340;SDS011;69656;44.498;0.166;2023-11-21T02:50:38;5.40;;;1.10;;
80340;SDS011;69656;44.498;0.166;2023-11-21T02:56:11;9.80;;;1.87;;
80340;SDS011;69656;44.498;0.166;2023-11-21T03:01:44;12.23;;;1.23;;
80340;SDS011;69656;44.498;0.166;2023-11-21T03:07:16;7.00;;;1.50;;
80340;SDS011;69656;44.498;0.166;2023-11-21T03:12:48;12.60;;;1.20;;
80340;SDS011;69656;44.498;0.166;2023-11-21T03:18:21;6.07;;;1.00;;
80340;SDS011;69656;44.498;0.166;2023-11-21T03:23:53;17.50;;;1.80;;
80340;SDS011;69656;44.498;0.166;2023-11-21T03:29:26;9.13;;;1.33;;
80340;SDS011;69656;44.498;0.166;2023-11-21T03:34:59;10.10;;;1.40;;
80340;SDS011;69656;44.498;0.166;2023-11-21T03:40:32;8.67;;;1.50;;
80340;SDS011;69656;44.498;0.166;2023-11-21T03:46:05;11.90;;;1.30;;
80340;SDS011;69656;44.498;0.166;2023-11-21T03:51:37;9.90;;;1.20;;
80340;SDS011;69656;44.498;0.166;2023-11-21T03:57:09;13.00;;;1.37;;
80340;SDS011;69656;44.498;0.166;2023-11-21T04:02:41;15.50;;;1.40;;
80340;SDS011;69656;44.498;0.166;2023-11-21T04:08:14;11.13;;;1.40;;
80340;SDS011;69656;44.498;0.166;2023-11-21T04:13:47;13.27;;;1.27;;
80340;SDS011;69656;44.498;0.166;2023-11-21T04:19:20;10.07;;;1.17;;
80340;SDS011;69656;44.498;0.166;2023-11-21T04:24:53;9.60;;;1.37;;
80340;SDS011;69656;44.498;0.166;2023-11-21T04:30:26;20.50;;;1.60;;
80340;SDS011;69656;44.498;0.166;2023-11-21T04:35:59;5.77;;;1.80;;
80340;SDS011;69656;44.498;0.166;2023-11-21T04:41:31;14.40;;;1.63;;
80340;SDS011;69656;44.498;0.166;2023-11-21T04:47:04;27.13;;;2.27;;
80340;SDS011;69656;44.498;0.166;2023-11-21T04:52:37;14.53;;;1.83;;
80340;SDS011;69656;44.498;0.166;2023-11-21T04:58:09;16.17;;;2.33;;
80340;SDS011;69656;44.498;0.166;2023-11-21T05:03:41;8.70;;;2.00;;
80340;SDS011;69656;44.498;0.166;2023-11-21T05:09:15;11.90;;;1.80;;
80340;SDS011;69656;44.498;0.166;2023-11-21T05:14:47;14.70;;;2.53;;
80340;SDS011;69656;44.498;0.166;2023-11-21T05:20:20;21.63;;;2.30;;
80340;SDS011;69656;44.498;0.166;2023-11-21T05:25:52;21.03;;;2.63;;
80340;SDS011;69656;44.498;0.166;2023-11-21T05:31:25;27.70;;;2.90;;
80340;SDS011;69656;44.498;0.166;2023-11-21T05:36:59;22.67;;;2.77;;
80340;SDS011;69656;44.498;0.166;2023-11-21T05:42:33;12.97;;;2.90;;
80340;SDS011;69656;44.498;0.166;2023-11-21T05:48:04;20.53;;;2.23;;
80340;SDS011;69656;44.498;0.166;2023-11-21T05:53:36;20.43;;;2.70;;
80340;SDS011;69656;44.498;0.166;2023-11-21T05:59:09;21.33;;;2.50;;
80340;SDS011;69656;44.498;0.166;2023-11-21T06:04:42;11.50;;;2.53;;
80340;SDS011;69656;44.498;0.166;2023-11-21T06:10:13;10.63;;;2.17;;
80340;SDS011;69656;44.498;0.166;2023-11-21T06:15:45;7.77;;;1.60;;
80340;SDS011;69656;44.498;0.166;2023-11-21T06:21:18;13.10;;;1.70;;
80340;SDS011;69656;44.498;0.166;2023-11-21T06:26:50;8.23;;;1.13;;
80340;SDS011;69656;44.498;0.166;2023-11-21T06:32:23;9.67;;;2.40;;
80340;SDS011;69656;44.498;0.166;2023-11-21T06:37:57;7.53;;;1.87;;
80340;SDS011;69656;44.498;0.166;2023-11-21T06:43:30;10.60;;;2.47;;
80340;SDS011;69656;44.498;0.166;2023-11-21T06:49:01;11.60;;;2.47;;
80340;SDS011;69656;44.498;0.166;2023-11-21T06:54:34;12.37;;;3.70;;
80340;SDS011;69656;44.498;0.166;2023-11-21T07:00:07;16.97;;;2.87;;
80340;SDS011;69656;44.498;0.166;2023-11-21T07:05:39;7.97;;;2.87;;
80340;SDS011;69656;44.498;0.166;2023-11-21T07:11:11;7.23;;;2.03;;
80340;SDS011;69656;44.498;0.166;2023-11-21T07:16:44;19.17;;;4.03;;
80340;SDS011;69656;44.498;0.166;2023-11-21T07:22:17;12.13;;;4.23;;
80340;SDS011;69656;44.498;0.166;2023-11-21T07:27:50;8.87;;;2.57;;
80340;SDS011;69656;44.498;0.166;2023-11-21T07:33:24;7.97;;;3.23;;
80340;SDS011;69656;44.498;0.166;2023-11-21T07:38:56;13.67;;;3.17;;
80340;SDS011;69656;44.498;0.166;2023-11-21T07:44:29;16.67;;;3.80;;
80340;SDS011;69656;44.498;0.166;2023-11-21T07:50:02;11.87;;;2.77;;
80340;SDS011;69656;44.498;0.166;2023-11-21T07:55:34;7.57;;;3.07;;
80340;SDS011;69656;44.498;0.166;2023-11-21T08:01:07;7.77;;;3.57;;
80340;SDS011;69656;44.498;0.166;2023-11-21T08:06:39;12.33;;;3.70;;
80340;SDS011;69656;44.498;0.166;2023-11-21T08:12:12;11.87;;;4.23;;
80340;SDS011;69656;44.498;0.166;2023-11-21T08:17:45;7.77;;;4.00;;
80340;SDS011;69656;44.498;0.166;2023-11-21T08:23:17;7.77;;;3.43;;
80340;SDS011;69656;44.498;0.166;2023-11-21T08:28:50;11.33;;;3.97;;
80340;SDS011;69656;44.498;0.166;2023-11-21T08:34:23;12.37;;;4.93;;
80340;SDS011;69656;44.498;0.166;2023-11-21T08:39:54;10.50;;;4.40;;
80340;SDS011;69656;44.498;0.166;2023-11-21T08:45:26;10.77;;;4.30;;
80340;SDS011;69656;44.498;0.166;2023-11-21T08:51:00;11.30;;;5.17;;
80340;SDS011;69656;44.498;0.166;2023-11-21T08:56:33;13.23;;;5.17;;
80340;SDS011;69656;44.498;0.166;2023-11-21T09:02:07;8.43;;;3.97;;
80340;SDS011;69656;44.498;0.166;2023-11-21T09:07:41;10.03;;;4.50;;
80340;SDS011;69656;44.498;0.166;2023-11-21T09:13:12;8.03;;;4.80;;
80340;SDS011;69656;44.498;0.166;2023-11-21T09:18:46;8.80;;;4.53;;
80340;SDS011;69656;44.498;0.166;2023-11-21T09:24:19;9.20;;;4.80;;
80340;SDS011;69656;44.498;0.166;2023-11-21T09:29:52;12.33;;;3.60;;
80340;SDS011;69656;44.498;0.166;2023-11-21T09:35:26;7.57;;;3.40;;
80340;SDS011;69656;44.498;0.166;2023-11-21T09:40:58;10.07;;;3.33;;
80340;SDS011;69656;44.498;0.166;2023-11-21T09:46:30;9.90;;;3.27;;
80340;SDS011;69656;44.498;0.166;2023-11-21T09:52:03;6.00;;;2.80;;
80340;SDS011;69656;44.498;0.166;2023-11-21T09:57:36;2.20;;;2.00;;
80340;SDS011;69656;44.498;0.166;2023-11-21T10:03:08;5.03;;;3.00;;
80340;SDS011;69656;44.498;0.166;2023-11-21T10:08:41;5.80;;;2.90;;
80340;SDS011;69656;44.498;0.166;2023-11-21T10:14:13;9.60;;;4.00;;
80340;SDS011;69656;44.498;0.166;2023-11-21T10:19:46;8.23;;;3.13;;
80340;SDS011;69656;44.498;0.166;2023-11-21T10:25:19;6.57;;;3.17;;
80340;SDS011;69656;44.498;0.166;2023-11-21T10:30:52;3.73;;;2.27;;
80340;SDS011;69656;44.498;0.166;2023-11-21T10:36:26;6.33;;;2.37;;
80340;SDS011;69656;44.498;0.166;2023-11-21T10:41:59;6.50;;;1.80;;
80340;SDS011;69656;44.498;0.166;2023-11-21T10:47:31;6.20;;;2.10;;
80340;SDS011;69656;44.498;0.166;2023-11-21T10:53:04;7.67;;;3.27;;
80340;SDS011;69656;44.498;0.166;2023-11-21T10:58:37;3.83;;;1.63;;
80340;SDS011;69656;44.498;0.166;2023-11-21T11:04:09;4.90;;;1.33;;
80340;SDS011;69656;44.498;0.166;2023-11-21T11:09:42;4.13;;;1.47;;
80340;SDS011;69656;44.498;0.166;2023-11-21T11:15:16;8.00;;;1.37;;
80340;SDS011;69656;44.498;0.166;2023-11-21T11:20:49;5.70;;;1.43;;
80340;SDS011;69656;44.498;0.166;2023-11-21T11:26:26;1.07;;;0.77;;
80340;SDS011;69656;44.498;0.166;2023-11-21T11:31:58;1.63;;;0.90;;
80340;SDS011;69656;44.498;0.166;2023-11-21T11:37:26;4.97;;;0.90;;
80340;SDS011;69656;44.498;0.166;2023-11-21T11:42:58;3.00;;;0.90;;
80340;SDS011;69656;44.498;0.166;2023-11-21T11:48:30;3.83;;;1.10;;
80340;SDS011;69656;44.498;0.166;2023-11-21T11:54:02;3.37;;;0.93;;
80340;SDS011;69656;44.498;0.166;2023-11-21T12:05:09;5.57;;;1.57;;
80340;SDS011;69656;44.498;0.166;2023-11-21T12:10:40;3.43;;;1.47;;
80340;SDS011;69656;44.498;0.166;2023-11-21T12:16:13;3.10;;;1.10;;
80340;SDS011;69656;44.498;0.166;2023-11-21T12:21:46;7.73;;;1.47;;
80340;SDS011;69656;44.498;0.166;2023-11-21T12:27:18;4.90;;;1.40;;
80340;SDS011;69656;44.498;0.166;2023-11-21T12:32:52;2.47;;;1.10;;
80340;SDS011;69656;44.498;0.166;2023-11-21T12:38:24;4.23;;;1.13;;
80340;SDS011;69656;44.498;0.166;2023-11-21T12:43:56;1.80;;;1.47;;
80340;SDS011;69656;44.498;0.166;2023-11-21T12:49:30;1.47;;;1.30;;
80340;SDS011;69656;44.498;0.166;2023-11-21T12:55:04;3.70;;;1.20;;
80340;SDS011;69656;44.498;0.166;2023-11-21T13:00:37;1.87;;;0.93;;
80340;SDS011;69656;44.498;0.166;2023-11-21T13:06:09;1.53;;;0.83;;
80340;SDS011;69656;44.498;0.166;2023-11-21T13:11:42;2.67;;;1.20;;
80340;SDS011;69656;44.498;0.166;2023-11-21T13:17:16;4.93;;;1.23;;
80340;SDS011;69656;44.498;0.166;2023-11-21T13:22:48;0.83;;;0.43;;
80340;SDS011;69656;44.498;0.166;2023-11-21T13:28:21;4.97;;;0.83;;
80340;SDS011;69656;44.498;0.166;2023-11-21T13:33:55;2.33;;;1.00;;
80340;SDS011;69656;44.498;0.166;2023-11-21T13:39:28;2.30;;;0.97;;
80340;SDS011;69656;44.498;0.166;2023-11-21T13:45:00;2.07;;;0.73;;
80340;SDS011;69656;44.498;0.166;2023-11-21T13:50:32;6.30;;;1.10;;
80340;SDS011;69656;44.498;0.166;2023-11-21T13:56:05;1.57;;;1.20;;
80340;SDS011;69656;44.498;0.166;2023-11-21T14:01:38;3.27;;;1.17;;
80340;SDS011;69656;44.498;0.166;2023-11-21T14:07:11;6.90;;;1.67;;
80340;SDS011;69656;44.498;0.166;2023-11-21T14:12:44;1.50;;;1.30;;
80340;SDS011;69656;44.498;0.166;2023-11-21T14:18:16;0.70;;;0.63;;
80340;SDS011;69656;44.498;0.166;2023-11-21T14:23:48;2.60;;;0.60;;
80340;SDS011;69656;44.498;0.166;2023-11-21T14:29:21;1.27;;;0.70;;
80340;SDS011;69656;44.498;0.166;2023-11-21T14:34:54;1.13;;;0.57;;
80340;SDS011;69656;44.498;0.166;2023-11-21T14:40:26;2.13;;;1.07;;
80340;SDS011;69656;44.498;0.166;2023-11-21T14:45:58;3.93;;;1.40;;
80340;SDS011;69656;44.498;0.166;2023-11-21T14:51:32;2.37;;;0.67;;
80340;SDS011;69656;44.498;0.166;2023-11-21T14:57:06;4.40;;;0.70;;
80340;SDS011;69656;44.498;0.166;2023-11-21T15:02:38;2.63;;;0.70;;
80340;SDS011;69656;44.498;0.166;2023-11-21T15:08:10;1.10;;;0.40;;
80340;SDS011;69656;44.498;0.166;2023-11-21T15:13:43;0.67;;;0.40;;
80340;SDS011;69656;44.498;0.166;2023-11-21T15:19:16;5.83;;;1.10;;
80340;SDS011;69656;44.498;0.166;2023-11-21T15:24:49;0.80;;;0.40;;
80340;SDS011;69656;44.498;0.166;2023-11-21T15:30:21;2.53;;;0.90;;
80340;SDS011;69656;44.498;0.166;2023-11-21T15:35:54;3.67;;;0.87;;
80340;SDS011;69656;44.498;0.166;2023-11-21T15:41:26;2.93;;;1.40;;
80340;SDS011;69656;44.498;0.166;2023-11-21T15:46:58;3.80;;;1.10;;
80340;SDS011;69656;44.498;0.166;2023-11-21T15:52:30;2.30;;;1.20;;
80340;SDS011;69656;44.498;0.166;2023-11-21T15:58:04;2.77;;;1.30;;
80340;SDS011;69656;44.498;0.166;2023-11-21T16:03:36;4.13;;;0.90;;
80340;SDS011;69656;44.498;0.166;2023-11-21T16:09:08;1.90;;;1.20;;
80340;SDS011;69656;44.498;0.166;2023-11-21T16:14:40;1.63;;;0.87;;
80340;SDS011;69656;44.498;0.166;2023-11-21T16:20:12;1.90;;;0.83;;
80340;SDS011;69656;44.498;0.166;2023-11-21T16:25:45;3.00;;;0.73;;
80340;SDS011;69656;44.498;0.166;2023-11-21T16:31:21;3.20;;;0.70;;
80340;SDS011;69656;44.498;0.166;2023-11-21T16:36:51;3.20;;;1.00;;
80340;SDS011;69656;44.498;0.166;2023-11-21T16:42:24;3.20;;;1.00;;
80340;SDS011;69656;44.498;0.166;2023-11-21T16:47:57;1.63;;;0.70;;
80340;SDS011;69656;44.498;0.166;2023-11-21T16:53:30;1.57;;;0.70;;
80340;SDS011;69656;44.498;0.166;2023-11-21T16:59:03;5.37;;;1.20;;
80340;SDS011;69656;44.498;0.166;2023-11-21T17:04:36;1.90;;;1.10;;
80340;SDS011;69656;44.498;0.166;2023-11-21T17:10:10;1.57;;;0.70;;
80340;SDS011;69656;44.498;0.166;2023-11-21T17:15:42;4.40;;;1.30;;
80340;SDS011;69656;44.498;0.166;2023-11-21T17:21:16;3.00;;;1.00;;
80340;SDS011;69656;44.498;0.166;2023-11-21T17:26:49;1.37;;;0.70;;
80340;SDS011;69656;44.498;0.166;2023-11-21T17:32:22;3.23;;;1.33;;
80340;SDS011;69656;44.498;0.166;2023-11-21T17:37:54;3.37;;;1.20;;
80340;SDS011;69656;44.498;0.166;2023-11-21T17:43:27;5.63;;;1.30;;
80340;SDS011;69656;44.498;0.166;2023-11-21T17:48:59;4.20;;;1.53;;
80340;SDS011;69656;44.498;0.166;2023-11-21T17:54:32;4.00;;;1.20;;
80340;SDS011;69656;44.498;0.166;2023-11-21T18:00:05;3.50;;;1.20;;
80340;SDS011;69656;44.498;0.166;2023-11-21T18:05:37;5.03;;;1.00;;
80340;SDS011;69656;44.498;0.166;2023-11-21T18:11:11;4.27;;;1.13;;
80340;SDS011;69656;44.498;0.166;2023-11-21T18:16:43;4.20;;;1.23;;
80340;SDS011;69656;44.498;0.166;2023-11-21T18:22:16;5.13;;;0.97;;
80340;SDS011;69656;44.498;0.166;2023-11-21T18:27:49;2.57;;;1.23;;
80340;SDS011;69656;44.498;0.166;2023-11-21T18:33:23;3.40;;;1.40;;
80340;SDS011;69656;44.498;0.166;2023-11-21T18:38:55;1.70;;;1.20;;
80340;SDS011;69656;44.498;0.166;2023-11-21T18:44:28;3.43;;;1.00;;
80340;SDS011;69656;44.498;0.166;2023-11-21T18:50:01;2.67;;;1.27;;
80340;SDS011;69656;44.498;0.166;2023-11-21T18:55:35;4.97;;;1.80;;
80340;SDS011;69656;44.498;0.166;2023-11-21T19:01:07;8.33;;;1.73;;
80340;SDS011;69656;44.498;0.166;2023-11-21T19:06:40;1.40;;;1.30;;
80340;SDS011;69656;44.498;0.166;2023-11-21T19:12:14;3.20;;;1.20;;
80340;SDS011;69656;44.498;0.166;2023-11-21T19:17:46;2.17;;;1.20;;
80340;SDS011;69656;44.498;0.166;2023-11-21T19:23:18;2.33;;;1.40;;
80340;SDS011;69656;44.498;0.166;2023-11-21T19:28:51;3.97;;;1.20;;
80340;SDS011;69656;44.498;0.166;2023-11-21T19:34:25;2.20;;;1.10;;
80340;SDS011;69656;44.498;0.166;2023-11-21T19:39:57;9.20;;;1.93;;
80340;SDS011;69656;44.498;0.166;2023-11-21T19:45:29;5.00;;;2.23;;
80340;SDS011;69656;44.498;0.166;2023-11-21T19:51:01;6.43;;;2.00;;
80340;SDS011;69656;44.498;0.166;2023-11-21T19:56:33;3.47;;;1.77;;
80340;SDS011;69656;44.498;0.166;2023-11-21T20:02:05;6.40;;;2.17;;
80340;SDS011;69656;44.498;0.166;2023-11-21T20:07:38;3.93;;;2.53;;
80340;SDS011;69656;44.498;0.166;2023-11-21T20:13:10;7.60;;;2.30;;
80340;SDS011;69656;44.498;0.166;2023-11-21T20:18:42;2.73;;;1.70;;
80340;SDS011;69656;44.498;0.166;2023-11-21T20:24:15;6.10;;;1.90;;
80340;SDS011;69656;44.498;0.166;2023-11-21T20:29:47;5.27;;;2.10;;
80340;SDS011;69656;44.498;0.166;2023-11-21T20:35:19;9.17;;;2.80;;
80340;SDS011;69656;44.498;0.166;2023-11-21T20:40:52;3.10;;;1.87;;
80340;SDS011;69656;44.498;0.166;2023-11-21T20:46:25;3.73;;;1.70;;
80340;SDS011;69656;44.498;0.166;2023-11-21T20:51:58;2.73;;;1.70;;
80340;SDS011;69656;44.498;0.166;2023-11-21T20:57:30;4.83;;;1.83;;
80340;SDS011;69656;44.498;0.166;2023-11-21T21:03:02;3.80;;;1.73;;
80340;SDS011;69656;44.498;0.166;2023-11-21T21:08:35;2.30;;;2.10;;
80340;SDS011;69656;44.498;0.166;2023-11-21T21:14:08;12.90;;;2.20;;
80340;SDS011;69656;44.498;0.166;2023-11-21T21:19:40;4.23;;;2.17;;
80340;SDS011;69656;44.498;0.166;2023-11-21T21:25:13;2.43;;;1.93;;
80340;SDS011;69656;44.498;0.166;2023-11-21T21:30:46;7.27;;;2.10;;
80340;SDS011;69656;44.498;0.166;2023-11-21T21:36:20;4.63;;;1.97;;
80340;SDS011;69656;44.498;0.166;2023-11-21T21:41:53;3.73;;;1.90;;
80340;SDS011;69656;44.498;0.166;2023-11-21T21:47:25;5.10;;;2.57;;
80340;SDS011;69656;44.498;0.166;2023-11-21T21:52:57;4.97;;;2.20;;
80340;SDS011;69656;44.498;0.166;2023-11-21T21:58:30;2.60;;;1.90;;
80340;SDS011;69656;44.498;0.166;2023-11-21T22:04:02;3.97;;;1.80;;
80340;SDS011;69656;44.498;0.166;2023-11-21T22:09:35;2.83;;;1.80;;
80340;SDS011;69656;44.498;0.166;2023-11-21T22:15:08;2.80;;;2.23;;
80340;SDS011;69656;44.498;0.166;2023-11-21T22:20:41;6.40;;;2.30;;
80340;SDS011;69656;44.498;0.166;2023-11-21T22:26:14;5.90;;;2.00;;
80340;SDS011;69656;44.498;0.166;2023-11-21T22:31:48;3.10;;;1.90;;
80340;SDS011;69656;44.498;0.166;2023-11-21T22:37:20;3.10;;;2.40;;
80340;SDS011;69656;44.498;0.166;2023-11-21T22:42:53;3.20;;;1.70;;
80340;SDS011;69656;44.498;0.166;2023-11-21T22:48:25;5.00;;;2.23;;
80340;SDS011;69656;44.498;0.166;2023-11-21T22:53:58;2.93;;;2.00;;
80340;SDS011;69656;44.498;0.166;2023-11-21T22:59:31;3.53;;;2.97;;
80340;SDS011;69656;44.498;0.166;2023-11-21T23:05:03;3.57;;;2.67;;
80340;SDS011;69656;44.498;0.166;2023-11-21T23:10:36;3.37;;;2.40;;
80340;SDS011;69656;44.498;0.166;2023-11-21T23:16:08;3.93;;;2.70;;
80340;SDS011;69656;44.498;0.166;2023-11-21T23:21:41;3.87;;;3.10;;
80340;SDS011;69656;44.498;0.166;2023-11-21T23:27:13;2.33;;;1.90;;
80340;SDS011;69656;44.498;0.166;2023-11-21T23:32:46;2.43;;;2.23;;
80340;SDS011;69656;44.498;0.166;2023-11-21T23:38:19;2.57;;;2.37;;
80340;SDS011;69656;44.498;0.166;2023-11-21T23:43:52;3.47;;;2.30;;
80340;SDS011;69656;44.498;0.166;2023-11-21T23:49:25;6.90;;;2.77;;
80340;SDS011;69656;44.498;0.166;2023-11-21T23:54:57;4.47;;;2.33;;
